createdAt,value
2023-04-10T00:00:19.379Z,18.27
2023-04-10T00:02:58.470Z,19.80
2023-04-10T00:05:31.343Z,18.90
2023-04-10T00:08:00.057Z,18.27
2023-04-10T00:10:30.251Z,20.23
2023-04-10T00:12:59.069Z,17.70
2023-04-10T00:18:37.861Z,18.65
2023-04-10T00:21:14.803Z,18.92
2023-04-10T00:23:54.382Z,19.20
2023-04-10T00:26:23.942Z,17.95
2023-04-10T00:28:59.240Z,19.58
2023-04-10T00:31:52.999Z,18.55
2023-04-10T00:34:22.067Z,17.20
2023-04-10T00:37:02.692Z,14.82
2023-04-10T00:39:39.986Z,18.88
2023-04-10T00:42:12.944Z,16.35
2023-04-10T00:44:43.568Z,16.20
2023-04-10T00:47:12.018Z,17.02
2023-04-10T00:49:39.543Z,15.27
2023-04-10T00:52:07.275Z,17.15
2023-04-10T00:54:36.326Z,19.58
2023-04-10T00:57:07.230Z,16.25
2023-04-10T00:59:35.111Z,13.63
2023-04-10T01:02:03.392Z,15.48
2023-04-10T01:04:32.242Z,16.23
2023-04-10T01:07:08.574Z,16.50
2023-04-10T01:09:43.404Z,15.30
2023-04-10T01:12:38.830Z,15.38
2023-04-10T01:15:20.409Z,15.65
2023-04-10T01:18:14.125Z,20.15
2023-04-10T01:20:42.637Z,14.15
2023-04-10T01:23:13.943Z,16.25
2023-04-10T01:25:45.051Z,17.58
2023-04-10T01:28:41.485Z,15.50
2023-04-10T01:31:27.606Z,15.45
2023-04-10T01:34:17.029Z,16.77
2023-04-10T01:36:52.485Z,17.25
2023-04-10T01:39:21.596Z,13.80
2023-04-10T01:41:53.056Z,16.52
2023-04-10T01:44:28.442Z,15.85
2023-04-10T01:46:57.724Z,13.90
2023-04-10T01:49:27.124Z,14.07
2023-04-10T01:51:58.486Z,16.67
2023-04-10T01:54:28.360Z,13.60
2023-04-10T01:56:57.136Z,12.57
2023-04-10T01:59:26.778Z,12.73
2023-04-10T02:02:06.206Z,15.05
2023-04-10T02:04:33.948Z,13.35
2023-04-10T02:07:21.237Z,12.63
2023-04-10T02:10:23.128Z,13.32
2023-04-10T02:12:55.787Z,13.25
2023-04-10T02:15:24.734Z,13.32
2023-04-10T02:17:52.932Z,12.32
2023-04-10T02:20:20.595Z,11.18
2023-04-10T02:22:49.356Z,13.48
2023-04-10T02:25:18.255Z,12.52
2023-04-10T02:27:47.559Z,12.98
2023-04-10T02:30:23.418Z,11.45
2023-04-10T02:32:55.077Z,13.35
2023-04-10T02:35:23.600Z,13.32
2023-04-10T02:37:51.084Z,11.77
2023-04-10T02:40:18.736Z,11.60
2023-04-10T02:42:46.610Z,12.05
2023-04-10T02:45:14.360Z,11.07
2023-04-10T02:53:46.768Z,11.52
2023-04-10T02:56:21.141Z,11.10
2023-04-10T03:04:29.495Z,11.18
2023-04-10T03:06:58.011Z,12.55
2023-04-10T03:09:28.746Z,12.02
2023-04-10T03:11:59.163Z,14.07
2023-04-10T03:14:33.280Z,12.48
2023-04-10T03:19:51.287Z,10.95
2023-04-10T03:22:21.765Z,12.95
2023-04-10T03:24:59.467Z,11.70
2023-04-10T03:27:37.770Z,11.93
2023-04-10T03:30:10.702Z,11.82
2023-04-10T03:35:20.472Z,9.95
2023-04-10T03:40:31.643Z,11.30
2023-04-10T03:43:04.802Z,11.95
2023-04-10T03:45:36.517Z,11.82
2023-04-10T03:48:12.334Z,11.93
2023-04-10T03:51:00.926Z,11.20
2023-04-10T03:53:38.731Z,11.95
2023-04-10T03:56:06.763Z,13.43
2023-04-10T03:58:34.804Z,11.27
2023-04-10T04:01:02.571Z,11.90
2023-04-10T04:03:40.068Z,10.68
2023-04-10T04:06:16.937Z,11.13
2023-04-10T04:08:45.854Z,12.55
2023-04-10T04:11:13.510Z,11.38
2023-04-10T04:13:40.954Z,12.90
2023-04-10T04:16:11.849Z,13.48
2023-04-10T04:18:44.262Z,12.38
2023-04-10T04:21:18.954Z,11.88
2023-04-10T04:23:52.045Z,14.25
2023-04-10T04:26:40.962Z,12.15
2023-04-10T04:29:49.540Z,12.35
2023-04-10T04:32:38.848Z,10.60
2023-04-10T04:35:11.227Z,11.98
2023-04-10T04:37:39.646Z,12.77
2023-04-10T04:42:51.939Z,11.75
2023-04-10T04:45:22.077Z,12.00
2023-04-10T04:50:59.456Z,11.10
2023-04-10T04:55:54.228Z,10.52
2023-04-10T04:58:22.103Z,11.77
2023-04-10T05:00:50.296Z,11.48
2023-04-10T05:03:19.570Z,10.45
2023-04-10T05:05:47.816Z,10.85
2023-04-10T05:08:16.784Z,11.65
2023-04-10T05:10:44.582Z,12.30
2023-04-10T05:13:12.360Z,11.80
2023-04-10T05:15:40.016Z,11.75
2023-04-10T05:18:07.579Z,12.02
2023-04-10T05:20:38.567Z,11.73
2023-04-10T05:23:11.659Z,11.57
2023-04-10T05:25:45.888Z,9.27
2023-04-10T05:28:15.363Z,10.63
2023-04-10T05:30:52.303Z,10.52
2023-04-10T05:33:28.007Z,13.35
2023-04-10T05:35:57.689Z,12.05
2023-04-10T05:41:11.505Z,12.50
2023-04-10T05:44:17.249Z,10.85
2023-04-10T05:47:12.966Z,9.98
2023-04-10T05:50:01.176Z,15.07
2023-04-10T05:52:29.456Z,12.85
2023-04-10T05:54:57.022Z,10.55
2023-04-10T05:57:35.635Z,11.05
2023-04-10T06:00:20.751Z,10.95
2023-04-10T06:02:52.189Z,12.07
2023-04-10T06:05:26.363Z,11.52
2023-04-10T06:08:01.726Z,10.35
2023-04-10T06:10:35.451Z,11.90
2023-04-10T06:13:08.277Z,12.77
2023-04-10T06:15:38.105Z,11.73
2023-04-10T06:18:34.526Z,11.18
2023-04-10T06:21:03.384Z,11.75
2023-04-10T06:23:34.463Z,14.50
2023-04-10T06:26:04.085Z,15.20
2023-04-10T06:28:40.300Z,10.60
2023-04-10T06:31:25.442Z,14.27
2023-04-10T06:34:02.421Z,12.48
2023-04-10T06:37:00.676Z,9.90
2023-04-10T06:39:29.144Z,11.55
2023-04-10T06:42:22.157Z,11.35
2023-04-10T06:44:52.475Z,11.45
2023-04-10T06:50:17.526Z,11.65
2023-04-10T06:52:46.988Z,10.27
2023-04-10T06:55:20.503Z,10.75
2023-04-10T06:57:57.491Z,10.68
2023-04-10T07:00:26.068Z,11.70
2023-04-10T07:02:55.689Z,12.13
2023-04-10T07:05:28.438Z,11.40
2023-04-10T07:07:58.556Z,12.30
2023-04-10T07:10:41.260Z,10.82
2023-04-10T07:13:13.527Z,10.98
2023-04-10T07:15:41.397Z,11.80
2023-04-10T07:18:08.856Z,10.95
2023-04-10T07:20:36.337Z,11.65
2023-04-10T07:23:03.670Z,11.82
2023-04-10T07:25:33.848Z,11.77
2023-04-10T07:28:01.628Z,11.68
2023-04-10T07:30:29.004Z,11.10
2023-04-10T07:32:56.534Z,10.00
2023-04-10T07:35:23.999Z,10.02
2023-04-10T07:37:51.981Z,10.43
2023-04-10T07:40:19.420Z,10.13
2023-04-10T07:42:47.658Z,12.50
2023-04-10T07:45:15.223Z,11.38
2023-04-10T07:47:42.609Z,10.73
2023-04-10T07:50:10.356Z,10.60
2023-04-10T07:52:37.791Z,10.98
2023-04-10T07:55:05.778Z,10.65
2023-04-10T07:57:34.402Z,10.68
2023-04-10T08:00:09.257Z,12.13
2023-04-10T08:02:43.940Z,11.93
2023-04-10T08:08:13.582Z,9.88
2023-04-10T08:10:50.206Z,9.90
2023-04-10T08:13:20.837Z,10.20
2023-04-10T08:16:00.142Z,11.43
2023-04-10T08:18:58.935Z,11.57
2023-04-10T08:21:34.230Z,10.15
2023-04-10T08:24:19.199Z,11.23
2023-04-10T08:27:12.637Z,10.63
2023-04-10T08:32:21.788Z,11.55
2023-04-10T08:35:35.461Z,11.18
2023-04-10T08:40:55.578Z,11.65
2023-04-10T08:43:33.170Z,10.50
2023-04-10T08:46:08.438Z,13.45
2023-04-10T08:48:46.109Z,11.10
2023-04-10T08:51:37.501Z,10.45
2023-04-10T08:54:19.757Z,11.50
2023-04-10T08:59:53.512Z,9.20
2023-04-10T09:02:28.925Z,10.48
2023-04-10T09:05:04.094Z,10.68
2023-04-10T09:07:51.971Z,12.85
2023-04-10T09:10:40.031Z,10.43
2023-04-10T09:13:26.701Z,10.07
2023-04-10T09:16:00.805Z,10.48
2023-04-10T09:18:52.790Z,9.95
2023-04-10T09:21:30.384Z,9.60
2023-04-10T09:24:03.980Z,9.65
2023-04-10T09:29:36.349Z,16.27
2023-04-10T09:32:12.062Z,10.23
2023-04-10T09:35:06.340Z,11.25
2023-04-10T09:37:39.146Z,9.93
2023-04-10T09:40:31.979Z,11.18
2023-04-10T09:42:59.324Z,10.55
2023-04-10T09:45:27.076Z,10.93
2023-04-10T09:48:15.725Z,14.23
2023-04-10T09:51:00.186Z,10.45
2023-04-10T09:53:36.713Z,10.05
2023-04-10T09:56:07.505Z,10.23
2023-04-10T09:58:42.259Z,11.85
2023-04-10T10:01:27.509Z,10.80
2023-04-10T10:04:11.097Z,10.45
2023-04-10T10:06:45.067Z,11.70
2023-04-10T10:15:09.211Z,11.88
2023-04-10T10:18:11.928Z,9.73
2023-04-10T10:21:15.386Z,11.57
2023-04-10T10:23:46.456Z,11.50
2023-04-10T10:26:14.464Z,9.63
2023-04-10T10:28:42.500Z,8.85
2023-04-10T10:31:12.674Z,13.13
2023-04-10T10:33:42.742Z,10.13
2023-04-10T10:36:21.645Z,9.23
2023-04-10T10:39:01.266Z,10.32
2023-04-10T10:42:13.705Z,15.00
2023-04-10T10:47:58.946Z,8.90
2023-04-10T10:56:33.840Z,9.30
2023-04-10T10:59:21.611Z,8.38
2023-04-10T11:08:07.904Z,9.63
2023-04-10T11:11:25.081Z,10.15
2023-04-10T11:14:03.038Z,8.45
2023-04-10T11:16:44.194Z,9.02
2023-04-10T11:19:16.754Z,8.07
2023-04-10T11:25:22.142Z,8.10
2023-04-10T11:29:02.329Z,11.10
2023-04-10T11:31:36.047Z,11.00
2023-04-10T11:34:12.736Z,7.20
2023-04-10T11:37:14.392Z,11.27
2023-04-10T11:40:05.068Z,8.07
2023-04-10T11:42:46.057Z,6.93
2023-04-10T11:45:47.738Z,6.60
2023-04-10T11:48:17.301Z,8.02
2023-04-10T11:50:44.685Z,9.00
2023-04-10T11:53:27.258Z,7.65
2023-04-10T11:55:55.989Z,6.47
2023-04-10T11:58:44.855Z,8.32
2023-04-10T12:01:18.603Z,8.18
2023-04-10T12:03:46.758Z,6.70
2023-04-10T12:06:17.041Z,7.40
2023-04-10T12:08:59.606Z,8.77
2023-04-10T12:11:40.088Z,9.93
2023-04-10T12:17:39.173Z,8.03
2023-04-10T12:25:58.854Z,6.57
2023-04-10T12:28:28.049Z,7.07
2023-04-10T12:31:02.937Z,8.43
2023-04-10T12:33:38.939Z,9.27
2023-04-10T12:36:12.268Z,7.47
2023-04-10T12:39:06.846Z,9.52
2023-04-10T12:41:37.449Z,8.00
2023-04-10T12:44:22.253Z,7.07
2023-04-10T12:46:50.773Z,6.78
2023-04-10T12:49:20.090Z,6.75
2023-04-10T12:51:52.508Z,7.32
2023-04-10T12:54:44.049Z,7.03
2023-04-10T13:00:15.378Z,7.53
2023-04-10T13:08:41.971Z,7.18
2023-04-10T13:11:19.249Z,11.10
2023-04-10T13:13:57.098Z,10.93
2023-04-10T13:16:52.745Z,9.23
2023-04-10T13:19:44.587Z,12.70
2023-04-10T13:22:12.859Z,9.82
2023-04-10T13:24:44.683Z,8.55
2023-04-10T13:27:21.892Z,9.05
2023-04-10T13:29:54.276Z,11.98
2023-04-10T13:32:23.969Z,9.07
2023-04-10T13:34:52.677Z,10.70
2023-04-10T13:37:25.268Z,13.50
2023-04-10T13:40:11.175Z,8.82
2023-04-10T13:42:47.041Z,8.55
2023-04-10T13:45:15.684Z,7.90
2023-04-10T13:47:47.179Z,9.45
2023-04-10T13:50:14.701Z,9.98
2023-04-10T13:52:42.447Z,11.13
2023-04-10T13:55:12.324Z,15.93
2023-04-10T13:57:44.917Z,16.38
2023-04-10T14:00:14.203Z,15.85
2023-04-10T14:02:50.101Z,13.57
2023-04-10T14:05:21.820Z,14.73
2023-04-10T14:08:20.134Z,15.57
2023-04-10T14:10:57.056Z,11.02
2023-04-10T14:13:25.844Z,9.93
2023-04-10T14:18:45.029Z,10.45
2023-04-10T14:21:22.797Z,10.57
2023-04-10T14:23:50.651Z,13.75
2023-04-10T14:26:22.320Z,20.17
2023-04-10T14:28:50.985Z,23.80
2023-04-10T14:31:22.153Z,18.30
2023-04-10T14:33:55.994Z,17.45
2023-04-10T14:36:23.711Z,12.15
2023-04-10T14:39:02.050Z,10.50
2023-04-10T14:41:30.195Z,10.85
2023-04-10T14:44:02.581Z,8.38
2023-04-10T14:46:31.423Z,9.18
2023-04-10T14:49:07.835Z,9.00
2023-04-10T14:51:36.769Z,8.07
2023-04-10T14:54:11.481Z,8.52
2023-04-10T14:56:39.006Z,8.80
2023-04-10T14:59:07.157Z,8.32
2023-04-10T15:01:38.318Z,11.20
2023-04-10T15:04:08.878Z,10.15
2023-04-10T15:06:36.877Z,9.05
2023-04-10T15:09:07.694Z,11.40
2023-04-10T15:11:35.473Z,10.77
2023-04-10T15:14:04.013Z,12.00
2023-04-10T15:16:31.900Z,12.63
2023-04-10T15:18:59.236Z,14.65
2023-04-10T15:21:27.570Z,16.17
2023-04-10T15:23:55.080Z,16.52
2023-04-10T15:26:25.746Z,19.30
2023-04-10T15:28:56.901Z,15.48
2023-04-10T15:34:21.687Z,18.80
2023-04-10T15:36:56.431Z,19.05
2023-04-10T15:51:03.352Z,18.63
2023-04-10T15:53:39.668Z,16.98
2023-04-10T15:56:18.599Z,17.88
2023-04-10T15:58:49.778Z,18.20
2023-04-10T16:01:21.996Z,18.25
2023-04-10T16:03:51.968Z,19.30
2023-04-10T16:06:22.538Z,17.88
2023-04-10T16:08:52.521Z,22.63
2023-04-10T16:11:23.050Z,17.20
2023-04-10T16:13:50.823Z,15.85
2023-04-10T16:16:19.632Z,16.90
2023-04-10T16:18:47.275Z,17.85
2023-04-10T16:21:15.442Z,15.85
2023-04-10T16:23:43.261Z,18.63
2023-04-10T16:26:13.881Z,16.02
2023-04-10T16:28:56.517Z,18.83
2023-04-10T16:31:27.863Z,19.42
2023-04-10T16:34:06.852Z,18.65
2023-04-10T16:36:45.927Z,19.25
2023-04-10T16:39:41.550Z,18.02
2023-04-10T16:42:28.016Z,22.33
2023-04-10T16:45:07.988Z,18.55
2023-04-10T16:47:48.307Z,16.02
2023-04-10T16:55:55.900Z,16.15
2023-04-10T16:58:35.504Z,15.07
2023-04-10T17:01:35.100Z,18.67
2023-04-10T17:04:20.069Z,17.35
2023-04-10T17:09:50.097Z,16.35
2023-04-10T17:15:10.819Z,19.23
2023-04-10T17:17:44.262Z,19.90
2023-04-10T17:20:12.375Z,14.55
2023-04-10T17:22:50.521Z,15.07
2023-04-10T17:25:20.485Z,13.52
2023-04-10T17:27:48.167Z,13.00
2023-04-10T17:30:17.503Z,13.68
2023-04-10T17:32:52.074Z,12.55
2023-04-10T17:35:47.760Z,13.30
2023-04-10T17:38:24.659Z,11.15
2023-04-10T17:41:07.115Z,15.00
2023-04-10T17:43:35.030Z,12.98
2023-04-10T17:46:02.941Z,12.25
2023-04-10T17:48:30.699Z,11.07
2023-04-10T17:50:58.688Z,14.10
2023-04-10T17:53:26.699Z,14.10
2023-04-10T17:55:56.553Z,17.23
2023-04-10T17:58:24.011Z,11.95
2023-04-10T18:00:51.650Z,14.93
2023-04-10T18:03:22.071Z,13.18
2023-04-10T18:05:52.537Z,13.55
2023-04-10T18:08:20.305Z,13.20
2023-04-10T18:10:49.831Z,15.82
2023-04-10T18:13:20.605Z,12.48
2023-04-10T18:15:47.983Z,13.00
2023-04-10T18:18:15.502Z,12.68
2023-04-10T18:20:45.508Z,11.93
2023-04-10T18:23:14.254Z,14.60
2023-04-10T18:25:44.179Z,11.70
2023-04-10T18:28:15.586Z,15.50
2023-04-10T18:33:20.809Z,14.77
2023-04-10T18:35:48.259Z,13.13
2023-04-10T18:38:18.628Z,14.32
2023-04-10T18:40:48.839Z,11.32
2023-04-10T18:43:48.709Z,13.75
2023-04-10T18:46:26.631Z,16.85
2023-04-10T18:49:03.816Z,14.27
2023-04-10T18:51:40.326Z,14.15
2023-04-10T18:56:59.057Z,15.52
2023-04-10T18:59:27.917Z,13.15
2023-04-10T19:01:56.231Z,14.55
2023-04-10T19:04:27.511Z,13.43
2023-04-10T19:06:55.996Z,15.50
2023-04-10T19:09:29.720Z,17.10
2023-04-10T19:21:20.037Z,16.38
2023-04-10T19:23:53.112Z,17.95
2023-04-10T19:29:10.176Z,17.88
2023-04-10T19:31:37.782Z,23.45
2023-04-10T19:34:12.504Z,18.05
2023-04-10T19:36:54.138Z,22.75
2023-04-10T19:39:25.463Z,19.52
2023-04-10T19:41:53.257Z,17.48
2023-04-10T19:44:20.762Z,18.92
2023-04-10T19:46:48.838Z,16.70
2023-04-10T19:49:17.872Z,19.42
2023-04-10T19:51:45.454Z,18.55
2023-04-10T19:54:16.417Z,14.98
2023-04-10T19:56:49.243Z,15.35
2023-04-10T19:59:17.357Z,19.23
2023-04-10T20:01:45.353Z,19.90
2023-04-10T20:04:13.003Z,20.38
2023-04-10T20:06:45.445Z,22.70
2023-04-10T20:09:12.924Z,19.67
2023-04-10T20:11:41.257Z,21.98
2023-04-10T20:14:09.358Z,21.05
2023-04-10T20:23:25.399Z,26.00
2023-04-10T20:28:40.486Z,17.27
2023-04-10T20:31:16.137Z,24.38
2023-04-10T20:33:51.529Z,23.02
2023-04-10T20:36:28.971Z,26.67
2023-04-10T20:39:02.678Z,22.88
2023-04-10T20:41:34.364Z,25.25
2023-04-10T20:44:05.461Z,27.30
2023-04-10T20:46:41.337Z,22.02
2023-04-10T20:49:19.806Z,23.48
2023-04-10T20:51:51.696Z,31.25
2023-04-10T21:32:51.000Z,23.85
2023-04-10T21:35:35.164Z,30.88
2023-04-10T21:44:55.920Z,35.50
2023-04-10T21:47:38.183Z,30.67
2023-04-10T21:54:17.010Z,36.42
2023-04-10T21:56:46.228Z,31.15
2023-04-10T21:59:42.463Z,36.42
2023-04-10T22:02:19.181Z,38.58
2023-04-10T22:05:08.300Z,29.58
2023-04-10T22:07:45.179Z,35.80
2023-04-10T22:13:06.095Z,35.08
2023-04-10T22:32:21.151Z,43.67
2023-04-10T22:34:57.669Z,41.03
2023-04-10T22:37:28.945Z,37.15
2023-04-10T22:40:01.172Z,37.85
2023-04-10T22:42:50.970Z,45.33
2023-04-10T22:45:33.289Z,44.60
2023-04-10T22:48:06.887Z,48.33
2023-04-10T23:02:15.211Z,57.55
2023-04-10T23:04:44.964Z,60.75
2023-04-10T23:13:02.292Z,53.72
2023-04-10T23:15:49.157Z,53.38
2023-04-10T23:18:37.424Z,62.50
2023-04-10T23:21:09.848Z,49.65
2023-04-10T23:36:13.501Z,55.60
2023-04-10T23:41:46.551Z,57.42
2023-04-10T23:44:46.263Z,53.08
